createdAt,value
2023-02-11T00:00:29.749Z,997.43
2023-02-11T00:01:02.046Z,997.43
2023-02-11T00:01:33.337Z,997.32
2023-02-11T00:02:05.431Z,997.32
2023-02-11T00:02:37.477Z,997.22
2023-02-11T00:03:09.471Z,997.22
2023-02-11T00:03:41.252Z,997.22
2023-02-11T00:04:13.150Z,997.22
2023-02-11T00:04:45.274Z,997.43
2023-02-11T00:05:17.510Z,997.43
2023-02-11T00:05:49.374Z,997.43
2023-02-11T00:06:05.387Z,997.43
2023-02-11T00:06:49.118Z,997.32
2023-02-11T00:07:21.481Z,997.32
2023-02-11T00:07:53.212Z,997.32
2023-02-11T00:08:24.996Z,997.32
2023-02-11T00:08:57.119Z,997.32
2023-02-11T00:09:31.722Z,997.32
2023-02-11T00:10:01.872Z,997.32
2023-02-11T00:10:33.221Z,997.53
2023-02-11T00:11:05.064Z,997.53
2023-02-11T00:11:37.098Z,997.32
2023-02-11T00:12:09.117Z,997.32
2023-02-11T00:12:41.031Z,997.22
2023-02-11T00:13:12.882Z,997.22
2023-02-11T00:13:44.804Z,997.43
2023-02-11T00:14:16.953Z,997.32
2023-02-11T00:14:48.761Z,997.32
2023-02-11T00:15:06.644Z,997.32
2023-02-11T00:15:36.804Z,997.32
2023-02-11T00:16:20.912Z,997.43
2023-02-11T00:16:53.190Z,997.43
2023-02-11T00:17:24.702Z,997.22
2023-02-11T00:17:56.569Z,997.22
2023-02-11T00:18:28.562Z,997.53
2023-02-11T00:19:00.779Z,997.53
2023-02-11T00:19:32.897Z,997.53
2023-02-11T00:20:07.926Z,997.53
2023-02-11T00:20:36.546Z,997.22
2023-02-11T00:21:08.616Z,997.22
2023-02-11T00:21:40.555Z,997.43
2023-02-11T00:22:12.708Z,997.43
2023-02-11T00:22:44.385Z,997.32
2023-02-11T00:23:16.574Z,997.32
2023-02-11T00:23:48.424Z,997.32
2023-02-11T00:24:04.830Z,997.32
2023-02-11T00:24:48.346Z,997.12
2023-02-11T00:25:20.644Z,997.22
2023-02-11T00:25:52.980Z,997.22
2023-02-11T00:26:24.277Z,997.22
2023-02-11T00:26:56.196Z,997.22
2023-02-11T00:27:28.258Z,997.32
2023-02-11T00:28:00.320Z,997.32
2023-02-11T00:28:32.541Z,997.53
2023-02-11T00:29:04.449Z,997.53
2023-02-11T00:29:36.237Z,997.32
2023-02-11T00:30:09.392Z,997.32
2023-02-11T00:30:40.070Z,997.63
2023-02-11T00:31:12.326Z,997.63
2023-02-11T00:31:44.325Z,997.22
2023-02-11T00:32:16.040Z,997.43
2023-02-11T00:32:47.997Z,997.43
2023-02-11T00:33:19.993Z,997.32
2023-02-11T00:33:52.045Z,997.32
2023-02-11T00:34:24.090Z,997.22
2023-02-11T00:34:55.847Z,997.22
2023-02-11T00:35:28.012Z,997.32
2023-02-11T00:35:59.891Z,997.32
2023-02-11T00:36:31.970Z,997.32
2023-02-11T00:37:04.309Z,997.32
2023-02-11T00:37:19.972Z,997.53
2023-02-11T00:37:51.832Z,997.53
2023-02-11T00:38:35.843Z,997.22
2023-02-11T00:39:07.878Z,997.22
2023-02-11T00:39:39.756Z,997.43
2023-02-11T00:40:12.218Z,997.43
2023-02-11T00:40:43.757Z,997.32
2023-02-11T00:41:15.692Z,997.32
2023-02-11T00:41:47.578Z,997.32
2023-02-11T00:42:04.514Z,997.32
2023-02-11T00:42:47.478Z,997.32
2023-02-11T00:43:04.206Z,997.32
2023-02-11T00:43:47.605Z,997.22
2023-02-11T00:44:19.684Z,997.32
2023-02-11T00:44:51.680Z,997.32
2023-02-11T00:45:23.861Z,997.32
2023-02-11T00:45:55.539Z,997.32
2023-02-11T00:46:27.649Z,997.32
2023-02-11T00:46:59.363Z,997.32
2023-02-11T00:47:31.663Z,997.02
2023-02-11T00:48:04.406Z,997.02
2023-02-11T00:48:35.552Z,997.02
2023-02-11T00:49:07.330Z,997.02
2023-02-11T00:49:39.525Z,997.12
2023-02-11T00:50:11.971Z,997.12
2023-02-11T00:50:43.348Z,997.22
2023-02-11T00:51:15.188Z,997.12
2023-02-11T00:51:47.347Z,997.12
2023-02-11T00:52:04.431Z,997.12
2023-02-11T00:52:35.248Z,996.92
2023-02-11T00:52:51.522Z,996.92
2023-02-11T00:53:23.296Z,997.12
2023-02-11T00:53:55.099Z,997.12
2023-02-11T00:54:29.944Z,997.12
2023-02-11T00:54:59.276Z,997.12
2023-02-11T00:55:31.535Z,997.12
2023-02-11T00:56:04.179Z,997.12
2023-02-11T00:56:19.138Z,997.22
2023-02-11T00:56:51.227Z,997.22
2023-02-11T00:57:35.207Z,997.22
2023-02-11T00:58:06.837Z,997.22
2023-02-11T00:58:38.927Z,997.32
2023-02-11T00:59:11.240Z,997.32
2023-02-11T00:59:43.125Z,997.02
2023-02-11T01:00:15.450Z,997.22
2023-02-11T01:00:46.800Z,997.22
2023-02-11T01:01:18.949Z,997.22
2023-02-11T01:01:51.039Z,997.22
2023-02-11T01:02:22.782Z,997.02
2023-02-11T01:02:54.776Z,997.02
2023-02-11T01:03:26.718Z,997.02
2023-02-11T01:03:58.726Z,997.02
2023-02-11T01:04:30.628Z,997.43
2023-02-11T01:05:03.852Z,997.43
2023-02-11T01:05:18.914Z,997.12
2023-02-11T01:06:04.000Z,997.12
2023-02-11T01:06:34.716Z,997.32
2023-02-11T01:07:06.511Z,997.32
2023-02-11T01:07:38.615Z,997.12
2023-02-11T01:08:10.797Z,997.12
2023-02-11T01:08:43.031Z,997.22
2023-02-11T01:09:14.516Z,997.22
2023-02-11T01:09:46.413Z,997.22
2023-02-11T01:10:18.816Z,997.22
2023-02-11T01:10:50.566Z,997.22
2023-02-11T01:11:22.441Z,997.12
2023-02-11T01:11:54.370Z,997.12
2023-02-11T01:12:26.515Z,997.12
2023-02-11T01:12:58.417Z,997.12
2023-02-11T01:13:30.265Z,997.12
2023-02-11T01:14:03.647Z,997.12
2023-02-11T01:14:34.487Z,997.12
2023-02-11T01:15:07.310Z,997.12
2023-02-11T01:15:38.128Z,997.02
2023-02-11T01:16:10.435Z,997.02
2023-02-11T01:16:42.491Z,996.82
2023-02-11T01:17:14.246Z,997.02
2023-02-11T01:17:46.061Z,997.02
2023-02-11T01:18:03.577Z,997.02
2023-02-11T01:18:46.100Z,997.02
2023-02-11T01:19:18.120Z,997.02
2023-02-11T01:19:50.236Z,997.02
2023-02-11T01:20:22.567Z,997.12
2023-02-11T01:20:54.014Z,997.12
2023-02-11T01:21:26.034Z,997.02
2023-02-11T01:21:58.057Z,997.02
2023-02-11T01:22:29.902Z,997.12
2023-02-11T01:23:02.909Z,997.12
2023-02-11T01:23:34.188Z,997.02
2023-02-11T01:24:05.988Z,997.02
2023-02-11T01:24:37.802Z,996.82
2023-02-11T01:25:10.088Z,996.82
2023-02-11T01:25:42.025Z,996.82
2023-02-11T01:26:13.881Z,996.82
2023-02-11T01:26:45.915Z,996.92
2023-02-11T01:27:02.464Z,996.92
2023-02-11T01:27:33.960Z,997.02
2023-02-11T01:28:17.933Z,996.82
2023-02-11T01:28:49.704Z,996.82
2023-02-11T01:29:21.669Z,996.82
2023-02-11T01:29:53.662Z,996.82
2023-02-11T01:30:26.066Z,996.61
2023-02-11T01:30:57.622Z,996.61
2023-02-11T01:31:29.567Z,996.71
2023-02-11T01:32:01.957Z,996.71
2023-02-11T01:32:33.660Z,996.71
2023-02-11T01:33:05.684Z,996.71
2023-02-11T01:33:37.303Z,996.82
2023-02-11T01:34:09.466Z,996.82
2023-02-11T01:34:41.762Z,996.61
2023-02-11T01:35:13.720Z,996.61
2023-02-11T01:35:45.284Z,996.71
2023-02-11T01:36:01.889Z,996.71
2023-02-11T01:36:45.321Z,996.71
2023-02-11T01:37:17.468Z,996.61
2023-02-11T01:37:49.364Z,996.61
2023-02-11T01:38:21.213Z,996.82
2023-02-11T01:38:53.254Z,996.82
2023-02-11T01:39:25.259Z,996.71
2023-02-11T01:39:57.292Z,996.71
2023-02-11T01:40:29.401Z,996.71
2023-02-11T01:41:01.550Z,996.71
2023-02-11T01:41:33.302Z,996.92
2023-02-11T01:42:05.368Z,996.92
2023-02-11T01:42:37.065Z,996.61
2023-02-11T01:43:09.164Z,996.61
2023-02-11T01:43:41.378Z,996.71
2023-02-11T01:44:13.314Z,996.71
2023-02-11T01:44:44.899Z,996.71
2023-02-11T01:45:03.572Z,996.71
2023-02-11T01:45:33.219Z,996.61
2023-02-11T01:46:16.964Z,996.61
2023-02-11T01:46:49.124Z,996.61
2023-02-11T01:47:21.118Z,996.82
2023-02-11T01:47:52.788Z,996.82
2023-02-11T01:48:24.998Z,996.61
2023-02-11T01:48:56.915Z,996.61
2023-02-11T01:49:28.786Z,996.71
2023-02-11T01:50:01.266Z,996.71
2023-02-11T01:50:33.146Z,996.61
2023-02-11T01:51:04.926Z,996.61
2023-02-11T01:51:36.781Z,996.61
2023-02-11T01:52:08.685Z,996.61
2023-02-11T01:52:40.852Z,996.71
2023-02-11T01:53:12.881Z,996.71
2023-02-11T01:53:44.542Z,996.71
2023-02-11T01:54:00.787Z,996.71
2023-02-11T01:54:44.531Z,996.71
2023-02-11T01:55:16.995Z,996.61
2023-02-11T01:55:49.006Z,996.61
2023-02-11T01:56:20.414Z,996.61
2023-02-11T01:56:52.904Z,996.61
2023-02-11T01:57:24.608Z,996.71
2023-02-11T01:57:56.539Z,996.71
2023-02-11T01:58:28.405Z,996.61
2023-02-11T01:59:00.549Z,996.61
2023-02-11T01:59:32.837Z,996.82
2023-02-11T02:00:07.295Z,996.82
2023-02-11T02:00:36.376Z,996.61
2023-02-11T02:01:08.318Z,996.61
2023-02-11T02:01:40.662Z,996.61
2023-02-11T02:02:12.727Z,996.61
2023-02-11T02:02:44.271Z,996.51
2023-02-11T02:03:00.472Z,996.51
2023-02-11T02:03:32.393Z,996.61
2023-02-11T02:03:48.303Z,996.61
2023-02-11T02:04:20.349Z,996.71
2023-02-11T02:04:52.510Z,996.71
2023-02-11T02:05:24.515Z,996.71
2023-02-11T02:05:56.232Z,996.71
2023-02-11T02:06:28.254Z,996.51
2023-02-11T02:07:00.129Z,996.51
2023-02-11T02:07:16.182Z,996.41
2023-02-11T02:07:48.173Z,996.41
2023-02-11T02:08:32.341Z,996.61
2023-02-11T02:09:04.682Z,996.61
2023-02-11T02:09:35.897Z,996.51
2023-02-11T02:10:08.100Z,996.51
2023-02-11T02:10:40.012Z,996.31
2023-02-11T02:11:12.215Z,996.31
2023-02-11T02:11:43.765Z,996.51
2023-02-11T02:12:00.029Z,996.51
2023-02-11T02:12:43.814Z,996.82
2023-02-11T02:13:15.823Z,996.71
2023-02-11T02:13:47.993Z,996.71
2023-02-11T02:14:19.833Z,996.51
2023-02-11T02:14:51.936Z,996.51
2023-02-11T02:15:24.324Z,996.41
2023-02-11T02:15:55.891Z,996.41
2023-02-11T02:16:27.715Z,996.61
2023-02-11T02:16:59.683Z,996.61
2023-02-11T02:17:31.860Z,996.51
2023-02-11T02:18:04.612Z,996.51
2023-02-11T02:18:35.701Z,996.61
2023-02-11T02:19:07.623Z,996.61
2023-02-11T02:19:39.693Z,996.41
2023-02-11T02:20:12.037Z,996.41
2023-02-11T02:20:43.579Z,996.51
2023-02-11T02:21:15.529Z,996.41
2023-02-11T02:21:47.558Z,996.41
2023-02-11T02:22:19.534Z,996.41
2023-02-11T02:22:51.770Z,996.41
2023-02-11T02:23:07.605Z,996.41
2023-02-11T02:23:39.480Z,996.31
2023-02-11T02:24:23.365Z,996.51
2023-02-11T02:24:55.289Z,996.51
2023-02-11T02:25:27.551Z,996.51
2023-02-11T02:25:59.290Z,996.51
2023-02-11T02:26:31.566Z,996.31
2023-02-11T02:27:04.011Z,996.31
2023-02-11T02:27:35.178Z,996.51
2023-02-11T02:28:07.183Z,996.51
2023-02-11T02:28:39.293Z,996.61
2023-02-11T02:29:11.212Z,996.61
2023-02-11T02:29:43.064Z,996.41
2023-02-11T02:30:15.988Z,996.41
2023-02-11T02:30:47.136Z,996.41
2023-02-11T02:31:19.045Z,996.51
2023-02-11T02:31:51.128Z,996.51
2023-02-11T02:32:23.077Z,996.61
2023-02-11T02:32:55.099Z,996.61
2023-02-11T02:33:26.842Z,996.71
2023-02-11T02:33:58.970Z,996.71
2023-02-11T02:34:14.951Z,996.51
2023-02-11T02:34:59.033Z,996.51
2023-02-11T02:35:31.597Z,996.41
2023-02-11T02:36:03.840Z,996.41
2023-02-11T02:36:34.829Z,996.41
2023-02-11T02:37:06.875Z,996.41
2023-02-11T02:37:38.953Z,996.41
2023-02-11T02:38:11.113Z,996.41
2023-02-11T02:38:42.772Z,996.41
2023-02-11T02:39:14.710Z,996.41
2023-02-11T02:39:46.841Z,996.41
2023-02-11T02:40:19.193Z,996.41
2023-02-11T02:40:50.792Z,996.41
2023-02-11T02:41:22.734Z,996.41
2023-02-11T02:41:54.781Z,996.41
2023-02-11T02:42:26.480Z,996.31
2023-02-11T02:42:58.674Z,996.31
2023-02-11T02:43:14.571Z,996.41
2023-02-11T02:43:46.470Z,996.41
2023-02-11T02:44:30.643Z,996.24
2023-02-11T02:45:05.682Z,996.24
2023-02-11T02:45:34.465Z,996.41
2023-02-11T02:46:06.432Z,996.41
2023-02-11T02:46:38.427Z,996.41
2023-02-11T02:47:10.441Z,996.41
2023-02-11T02:47:42.797Z,996.31
2023-02-11T02:47:59.028Z,996.31
2023-02-11T02:48:42.550Z,996.24
2023-02-11T02:49:14.389Z,996.14
2023-02-11T02:49:46.155Z,996.14
2023-02-11T02:50:18.705Z,996.24
2023-02-11T02:50:50.310Z,996.24
2023-02-11T02:51:22.544Z,996.41
2023-02-11T02:51:54.163Z,996.41
2023-02-11T02:52:26.125Z,996.24
2023-02-11T02:52:58.226Z,996.24
2023-02-11T02:53:30.325Z,996.24
2023-02-11T02:54:02.644Z,996.24
2023-02-11T02:54:34.090Z,996.24
2023-02-11T02:55:06.375Z,996.24
2023-02-11T02:55:38.002Z,996.24
2023-02-11T02:56:09.927Z,996.24
2023-02-11T02:56:42.140Z,996.24
2023-02-11T02:57:14.011Z,996.24
2023-02-11T02:57:46.012Z,996.24
2023-02-11T02:58:17.850Z,996.41
2023-02-11T02:58:49.862Z,996.41
2023-02-11T02:59:22.203Z,996.14
2023-02-11T02:59:53.986Z,996.14
2023-02-11T03:00:26.323Z,996.14
2023-02-11T03:00:57.938Z,996.14
2023-02-11T03:01:14.037Z,996.14
2023-02-11T03:01:45.729Z,996.31
2023-02-11T03:02:29.906Z,996.04
2023-02-11T03:03:02.106Z,996.04
2023-02-11T03:03:33.844Z,996.14
2023-02-11T03:04:05.856Z,996.14
2023-02-11T03:04:37.750Z,996.04
2023-02-11T03:05:09.961Z,996.04
2023-02-11T03:05:41.721Z,996.14
2023-02-11T03:06:13.710Z,996.14
2023-02-11T03:06:45.711Z,996.31
2023-02-11T03:07:17.455Z,996.04
2023-02-11T03:07:49.448Z,996.04
2023-02-11T03:08:21.738Z,995.94
2023-02-11T03:08:53.677Z,995.94
2023-02-11T03:09:25.435Z,995.94
2023-02-11T03:09:57.579Z,995.94
2023-02-11T03:10:13.917Z,995.94
2023-02-11T03:10:57.587Z,995.83
2023-02-11T03:11:29.380Z,995.94
2023-02-11T03:12:01.621Z,995.94
2023-02-11T03:12:33.592Z,995.94
2023-02-11T03:13:05.410Z,995.94
2023-02-11T03:13:37.418Z,996.24
2023-02-11T03:14:09.259Z,996.24
2023-02-11T03:14:41.347Z,995.94
2023-02-11T03:15:14.324Z,995.94
2023-02-11T03:15:45.261Z,996.31
2023-02-11T03:16:17.190Z,995.94
2023-02-11T03:16:49.194Z,995.94
2023-02-11T03:17:21.341Z,996.14
2023-02-11T03:17:53.185Z,996.14
2023-02-11T03:18:25.088Z,996.04
2023-02-11T03:18:57.020Z,996.04
2023-02-11T03:19:13.183Z,996.04
2023-02-11T03:19:44.923Z,996.04
2023-02-11T03:20:29.499Z,996.04
2023-02-11T03:21:01.539Z,996.04
2023-02-11T03:21:33.242Z,995.94
2023-02-11T03:22:05.653Z,995.94
2023-02-11T03:22:36.934Z,996.14
2023-02-11T03:23:08.904Z,996.14
2023-02-11T03:23:41.210Z,995.83
2023-02-11T03:23:57.087Z,995.83
2023-02-11T03:24:41.040Z,996.14
2023-02-11T03:25:13.135Z,996.14
2023-02-11T03:25:44.623Z,996.14
2023-02-11T03:26:16.698Z,995.94
2023-02-11T03:26:48.785Z,995.94
2023-02-11T03:27:20.782Z,996.04
2023-02-11T03:27:52.729Z,996.04
2023-02-11T03:28:24.719Z,995.94
2023-02-11T03:28:56.693Z,995.94
2023-02-11T03:29:28.751Z,995.94
2023-02-11T03:30:01.860Z,995.94
2023-02-11T03:30:32.657Z,996.04
2023-02-11T03:31:05.182Z,996.04
2023-02-11T03:31:36.737Z,996.04
2023-02-11T03:32:08.644Z,996.04
2023-02-11T03:32:40.601Z,995.94
2023-02-11T03:33:12.702Z,995.94
2023-02-11T03:33:44.545Z,996.14
2023-02-11T03:34:16.350Z,995.94
2023-02-11T03:34:48.438Z,995.94
2023-02-11T03:35:20.759Z,996.24
2023-02-11T03:35:52.643Z,996.24
2023-02-11T03:36:24.442Z,996.04
2023-02-11T03:36:56.359Z,996.04
2023-02-11T03:37:12.634Z,996.04
2023-02-11T03:37:44.314Z,996.14
2023-02-11T03:38:28.440Z,996.04
2023-02-11T03:39:00.111Z,996.04
2023-02-11T03:39:32.521Z,995.94
2023-02-11T03:40:05.357Z,995.94
2023-02-11T03:40:36.246Z,995.94
2023-02-11T03:41:08.348Z,995.94
2023-02-11T03:41:40.342Z,995.94
2023-02-11T03:41:56.343Z,995.94
2023-02-11T03:42:40.996Z,995.94
2023-02-11T03:43:13.394Z,995.94
2023-02-11T03:43:44.068Z,996.04
2023-02-11T03:44:15.973Z,996.14
2023-02-11T03:44:48.047Z,996.14
2023-02-11T03:45:20.411Z,995.94
2023-02-11T03:45:52.582Z,995.94
2023-02-11T03:46:24.073Z,995.94
2023-02-11T03:46:55.959Z,995.94
2023-02-11T03:47:27.982Z,995.83
2023-02-11T03:47:59.898Z,995.83
2023-02-11T03:48:31.921Z,996.04
2023-02-11T03:49:04.447Z,996.04
2023-02-11T03:49:35.797Z,996.14
2023-02-11T03:50:07.987Z,996.14
2023-02-11T03:50:39.753Z,996.14
2023-02-11T03:51:11.696Z,996.14
2023-02-11T03:51:43.830Z,995.83
2023-02-11T03:52:15.774Z,995.94
2023-02-11T03:52:47.498Z,995.94
2023-02-11T03:53:19.648Z,995.94
2023-02-11T03:53:51.780Z,995.94
2023-02-11T03:54:23.603Z,996.04
2023-02-11T03:54:55.689Z,996.04
2023-02-11T03:55:12.064Z,996.04
2023-02-11T03:55:43.533Z,995.83
2023-02-11T03:56:27.611Z,996.14
2023-02-11T03:56:59.468Z,996.14
2023-02-11T03:57:31.776Z,995.73
2023-02-11T03:58:04.286Z,995.73
2023-02-11T03:58:35.617Z,995.94
2023-02-11T03:59:07.275Z,995.94
2023-02-11T03:59:39.416Z,995.83
2023-02-11T03:59:55.567Z,995.83
2023-02-11T04:00:39.796Z,996.04
2023-02-11T04:01:11.629Z,996.04
2023-02-11T04:01:43.189Z,996.04
2023-02-11T04:02:15.264Z,996.14
2023-02-11T04:02:47.213Z,996.14
2023-02-11T04:03:19.490Z,996.14
2023-02-11T04:03:51.259Z,996.14
2023-02-11T04:04:23.344Z,996.04
2023-02-11T04:04:55.258Z,996.04
2023-02-11T04:05:27.439Z,996.04
2023-02-11T04:05:59.031Z,996.04
2023-02-11T04:06:31.284Z,995.83
2023-02-11T04:07:03.994Z,995.83
2023-02-11T04:07:35.144Z,995.94
2023-02-11T04:08:06.953Z,995.94
2023-02-11T04:08:38.919Z,995.94
2023-02-11T04:08:55.309Z,995.94
2023-02-11T04:09:26.959Z,995.83
2023-02-11T04:09:43.285Z,995.83
2023-02-11T04:10:15.073Z,995.83
2023-02-11T04:10:46.938Z,995.83
2023-02-11T04:11:18.982Z,995.94
2023-02-11T04:11:50.991Z,995.94
2023-02-11T04:12:23.270Z,995.83
2023-02-11T04:12:54.922Z,995.83
2023-02-11T04:13:11.033Z,995.83
2023-02-11T04:13:42.800Z,995.94
2023-02-11T04:14:26.810Z,996.04
2023-02-11T04:14:58.610Z,996.04
2023-02-11T04:15:31.177Z,996.14
2023-02-11T04:16:04.127Z,996.14
2023-02-11T04:16:34.701Z,996.14
2023-02-11T04:17:06.672Z,996.14
2023-02-11T04:17:38.649Z,996.04
2023-02-11T04:17:54.817Z,996.04
2023-02-11T04:18:38.673Z,996.14
2023-02-11T04:19:10.658Z,996.14
2023-02-11T04:19:42.640Z,996.14
2023-02-11T04:20:14.862Z,996.14
2023-02-11T04:20:46.467Z,996.14
2023-02-11T04:21:18.516Z,996.51
2023-02-11T04:21:50.440Z,996.51
2023-02-11T04:22:22.697Z,996.31
2023-02-11T04:22:54.505Z,996.31
2023-02-11T04:23:26.561Z,996.14
2023-02-11T04:23:58.296Z,996.14
2023-02-11T04:24:30.341Z,996.24
2023-02-11T04:25:03.509Z,996.24
2023-02-11T04:25:34.518Z,996.31
2023-02-11T04:26:06.209Z,996.31
2023-02-11T04:26:38.200Z,996.24
2023-02-11T04:26:54.462Z,996.24
2023-02-11T04:27:26.201Z,996.31
2023-02-11T04:27:42.558Z,996.31
2023-02-11T04:28:14.126Z,996.31
2023-02-11T04:28:46.165Z,996.14
2023-02-11T04:29:18.179Z,996.41
2023-02-11T04:29:50.155Z,996.41
2023-02-11T04:30:22.678Z,996.31
2023-02-11T04:30:54.344Z,996.31
2023-02-11T04:31:10.274Z,996.31
2023-02-11T04:31:42.086Z,996.41
2023-02-11T04:32:25.994Z,996.31
2023-02-11T04:32:57.828Z,996.31
2023-02-11T04:33:14.018Z,996.31
2023-02-11T04:33:45.996Z,996.41
2023-02-11T04:34:29.980Z,996.31
2023-02-11T04:35:03.226Z,996.31
2023-02-11T04:35:33.870Z,996.51
2023-02-11T04:36:05.948Z,996.51
2023-02-11T04:36:37.858Z,996.24
2023-02-11T04:37:09.949Z,996.24
2023-02-11T04:37:41.816Z,996.24
2023-02-11T04:38:13.679Z,996.24
2023-02-11T04:38:45.787Z,996.24
2023-02-11T04:39:17.858Z,996.24
2023-02-11T04:39:49.690Z,996.24
2023-02-11T04:40:22.242Z,996.31
2023-02-11T04:40:53.698Z,996.31
2023-02-11T04:41:25.759Z,996.41
2023-02-11T04:41:57.584Z,996.41
2023-02-11T04:42:29.561Z,996.41
2023-02-11T04:43:02.231Z,996.41
2023-02-11T04:43:33.689Z,996.41
2023-02-11T04:44:05.808Z,996.41
2023-02-11T04:44:37.425Z,996.31
2023-02-11T04:44:53.573Z,996.31
2023-02-11T04:45:26.036Z,996.24
2023-02-11T04:46:09.582Z,996.24
2023-02-11T04:46:41.728Z,996.24
2023-02-11T04:47:13.397Z,996.24
2023-02-11T04:47:45.308Z,996.24
2023-02-11T04:48:17.392Z,996.41
2023-02-11T04:48:49.692Z,996.41
2023-02-11T04:49:21.449Z,996.14
2023-02-11T04:49:53.319Z,996.14
2023-02-11T04:50:25.708Z,996.24
2023-02-11T04:50:57.270Z,996.24
2023-02-11T04:51:29.231Z,996.24
2023-02-11T04:52:01.617Z,996.24
2023-02-11T04:52:33.208Z,996.24
2023-02-11T04:53:05.260Z,996.24
2023-02-11T04:53:36.999Z,996.31
2023-02-11T04:53:53.358Z,996.31
2023-02-11T04:54:37.099Z,996.14
2023-02-11T04:55:09.498Z,996.14
2023-02-11T04:55:41.467Z,996.14
2023-02-11T04:56:13.057Z,996.14
2023-02-11T04:56:45.046Z,996.14
2023-02-11T04:57:17.014Z,996.31
2023-02-11T04:57:49.163Z,996.31
2023-02-11T04:58:21.209Z,996.14
2023-02-11T04:58:52.995Z,996.14
2023-02-11T04:59:25.022Z,996.24
2023-02-11T04:59:56.991Z,996.24
2023-02-11T05:00:29.201Z,996.04
2023-02-11T05:01:01.129Z,996.04
2023-02-11T05:01:33.069Z,995.94
2023-02-11T05:02:05.492Z,995.94
2023-02-11T05:02:36.657Z,996.31
2023-02-11T05:02:53.199Z,996.31
2023-02-11T05:03:24.741Z,996.31
2023-02-11T05:03:41.221Z,996.31
2023-02-11T05:04:12.857Z,996.31
2023-02-11T05:04:44.564Z,996.24
2023-02-11T05:05:16.923Z,996.41
2023-02-11T05:05:49.074Z,996.41
2023-02-11T05:06:21.090Z,996.14
2023-02-11T05:06:52.754Z,996.14
2023-02-11T05:07:08.740Z,996.14
2023-02-11T05:07:40.624Z,996.14
2023-02-11T05:08:24.573Z,996.14
2023-02-11T05:08:56.315Z,996.14
2023-02-11T05:09:28.512Z,996.14
2023-02-11T05:10:00.685Z,996.14
2023-02-11T05:10:32.618Z,995.94
2023-02-11T05:11:04.805Z,995.94
2023-02-11T05:11:36.489Z,996.14
2023-02-11T05:11:52.634Z,996.14
2023-02-11T05:12:36.504Z,996.14
2023-02-11T05:13:08.430Z,996.14
2023-02-11T05:13:40.541Z,995.94
2023-02-11T05:14:12.475Z,995.94
2023-02-11T05:14:44.322Z,996.14
2023-02-11T05:15:17.695Z,996.14
2023-02-11T05:15:48.582Z,996.14
2023-02-11T05:16:20.389Z,995.94
2023-02-11T05:16:52.609Z,995.94
2023-02-11T05:17:24.444Z,996.04
2023-02-11T05:17:56.070Z,996.04
2023-02-11T05:18:28.130Z,995.94
2023-02-11T05:19:00.238Z,995.94
2023-02-11T05:19:32.331Z,995.83
2023-02-11T05:20:04.824Z,995.83
2023-02-11T05:20:36.029Z,996.14
2023-02-11T05:21:08.097Z,996.14
2023-02-11T05:21:50.354Z,996.14
2023-02-11T05:22:12.084Z,996.14
2023-02-11T05:22:43.921Z,995.83
2023-02-11T05:23:16.010Z,995.94
2023-02-11T05:23:47.967Z,995.94
2023-02-11T05:24:20.032Z,995.83
2023-02-11T05:24:52.043Z,995.83
2023-02-11T05:25:24.176Z,995.63
2023-02-11T05:25:56.006Z,995.63
2023-02-11T05:26:27.630Z,995.83
2023-02-11T05:26:59.733Z,995.83
2023-02-11T05:27:31.961Z,995.73
2023-02-11T05:28:04.401Z,995.73
2023-02-11T05:28:35.751Z,995.73
2023-02-11T05:29:07.618Z,995.73
2023-02-11T05:29:39.641Z,995.73
2023-02-11T05:30:13.270Z,995.73
2023-02-11T05:30:43.665Z,995.73
2023-02-11T05:31:15.504Z,995.73
2023-02-11T05:31:47.604Z,995.73
2023-02-11T05:32:19.631Z,995.73
2023-02-11T05:32:51.620Z,995.73
2023-02-11T05:33:07.593Z,995.73
2023-02-11T05:33:51.731Z,995.63
2023-02-11T05:34:23.484Z,995.33
2023-02-11T05:34:55.601Z,995.33
2023-02-11T05:35:27.585Z,995.43
2023-02-11T05:35:59.426Z,995.43
2023-02-11T05:36:33.384Z,995.33
2023-02-11T05:37:04.280Z,995.33
2023-02-11T05:37:35.401Z,995.53
2023-02-11T05:37:51.577Z,995.53
2023-02-11T05:38:23.255Z,995.22
2023-02-11T05:38:39.509Z,995.22
2023-02-11T05:39:11.434Z,995.22
2023-02-11T05:39:43.267Z,995.22
2023-02-11T05:40:15.380Z,995.33
2023-02-11T05:40:47.233Z,995.33
2023-02-11T05:41:19.071Z,995.43
2023-02-11T05:41:51.392Z,995.43
2023-02-11T05:42:07.165Z,995.43
2023-02-11T05:42:38.966Z,995.33
2023-02-11T05:43:23.169Z,995.33
2023-02-11T05:43:55.106Z,995.33
2023-02-11T05:44:26.954Z,995.53
2023-02-11T05:44:59.012Z,995.53
2023-02-11T05:45:31.464Z,995.63
2023-02-11T05:46:03.712Z,995.63
2023-02-11T05:46:35.025Z,995.43
2023-02-11T05:46:51.252Z,995.43
2023-02-11T05:47:35.423Z,995.53
2023-02-11T05:48:06.938Z,995.53
2023-02-11T05:48:38.926Z,995.53
2023-02-11T05:49:11.088Z,995.53
2023-02-11T05:49:42.986Z,995.33
2023-02-11T05:50:15.015Z,995.43
2023-02-11T05:50:46.681Z,995.43
2023-02-11T05:51:18.708Z,995.43
2023-02-11T05:51:51.034Z,995.43
2023-02-11T05:52:22.979Z,995.63
2023-02-11T05:52:54.756Z,995.63
2023-02-11T05:53:26.614Z,995.43
2023-02-11T05:53:58.687Z,995.43
2023-02-11T05:54:30.683Z,995.53
2023-02-11T05:55:03.700Z,995.53
2023-02-11T05:55:34.577Z,995.53
2023-02-11T05:55:51.473Z,995.53
2023-02-11T05:56:22.485Z,995.53
2023-02-11T05:56:38.649Z,995.53
2023-02-11T05:57:10.497Z,995.53
2023-02-11T05:57:42.632Z,995.53
2023-02-11T05:58:14.498Z,995.73
2023-02-11T05:58:46.462Z,995.73
2023-02-11T05:59:18.254Z,995.53
2023-02-11T05:59:50.565Z,995.53
2023-02-11T06:00:07.458Z,995.53
2023-02-11T06:00:38.295Z,995.43
2023-02-11T06:01:22.534Z,995.43
2023-02-11T06:01:54.216Z,995.43
2023-02-11T06:02:26.325Z,995.53
2023-02-11T06:02:58.362Z,995.53
2023-02-11T06:03:30.402Z,995.53
2023-02-11T06:04:03.017Z,995.53
2023-02-11T06:04:34.205Z,995.43
2023-02-11T06:05:06.517Z,995.43
2023-02-11T06:05:38.208Z,995.53
2023-02-11T06:06:10.114Z,995.53
2023-02-11T06:06:42.384Z,995.22
2023-02-11T06:07:14.152Z,995.22
2023-02-11T06:07:46.051Z,995.43
2023-02-11T06:08:17.887Z,995.33
2023-02-11T06:08:50.163Z,995.33
2023-02-11T06:09:22.159Z,995.33
2023-02-11T06:09:54.106Z,995.33
2023-02-11T06:10:26.843Z,995.22
2023-02-11T06:10:57.851Z,995.22
2023-02-11T06:11:29.939Z,995.53
2023-02-11T06:12:02.553Z,995.53
2023-02-11T06:12:33.927Z,995.33
2023-02-11T06:12:50.010Z,995.33
2023-02-11T06:13:21.940Z,995.53
2023-02-11T06:13:37.824Z,995.53
2023-02-11T06:14:09.933Z,995.53
2023-02-11T06:14:42.052Z,995.63
2023-02-11T06:15:14.758Z,995.63
2023-02-11T06:15:45.828Z,995.53
2023-02-11T06:16:17.809Z,995.33
2023-02-11T06:16:49.559Z,995.33
2023-02-11T06:17:05.742Z,995.33
2023-02-11T06:17:37.659Z,995.73
2023-02-11T06:18:21.870Z,995.53
2023-02-11T06:18:53.736Z,995.53
2023-02-11T06:19:25.634Z,995.63
2023-02-11T06:19:57.594Z,995.63
2023-02-11T06:20:29.858Z,995.63
2023-02-11T06:21:02.243Z,995.63
2023-02-11T06:21:43.389Z,995.53
2023-02-11T06:21:49.802Z,995.53
2023-02-11T06:22:34.858Z,995.73
2023-02-11T06:23:05.586Z,995.73
2023-02-11T06:23:37.430Z,995.73
2023-02-11T06:24:09.335Z,995.73
2023-02-11T06:24:59.815Z,995.53
2023-02-11T06:25:13.674Z,995.53
2023-02-11T06:25:45.279Z,995.63
2023-02-11T06:26:17.136Z,995.83
2023-02-11T06:26:49.306Z,995.83
2023-02-11T06:27:21.384Z,995.63
2023-02-11T06:27:53.397Z,995.63
2023-02-11T06:28:25.221Z,995.73
2023-02-11T06:28:57.274Z,995.73
2023-02-11T06:29:29.223Z,995.83
2023-02-11T06:30:03.881Z,995.83
2023-02-11T06:30:33.035Z,995.63
2023-02-11T06:30:49.756Z,995.63
2023-02-11T06:31:21.135Z,995.63
2023-02-11T06:31:37.164Z,995.63